Time;durP1;ratioP1;P1;durP2;ratioP2;P2;SDS_P1;SDS_P2;PMS_P1;PMS_P2;Temp;Humidity;BMP_temperature;BMP_pressure;BME280_temperature;BME280_humidity;BME280_pressure;Samples;Min_cycle;Max_cycle;Signal;HPM_P1;HPM_P2
2020/12/03 00:00:51;;;;;;;34.92;14.88;;;;;;;-5.28;63.37;101615.53;5031280;28;20044;-60
2020/12/03 00:03:23;;;;;;;36.33;14.38;;;;;;;-5.16;63.60;101635.72;5031139;28;20044;-61
2020/12/03 00:05:56;;;;;;;36.00;14.32;;;;;;;-5.08;62.62;101629.69;5029974;28;20522;-62
2020/12/03 00:08:22;;;;;;;34.75;15.25;;;;;;;-5.02;62.19;101620.22;5030805;28;20084;-61
2020/12/03 00:10:48;;;;;;;32.60;13.45;;;;;;;-5.02;62.49;101648.94;5030856;28;20039;-59
2020/12/03 00:13:18;;;;;;;34.15;13.15;;;;;;;-5.07;62.03;101621.00;5030986;28;20045;-63
2020/12/03 00:15:44;;;;;;;39.90;15.10;;;;;;;-5.07;62.63;101641.03;5031152;28;20037;-59
2020/12/03 00:18:10;;;;;;;35.55;14.90;;;;;;;-5.18;62.90;101612.16;5012476;28;20038;-60
2020/12/03 00:20:36;;;;;;;35.55;14.43;;;;;;;-5.19;63.17;101629.56;5030761;28;20044;-60
2020/12/03 00:23:03;;;;;;;38.90;14.75;;;;;;;-5.16;63.23;101636.56;5031061;28;20073;-57
2020/12/03 00:25:29;;;;;;;38.60;14.48;;;;;;;-5.63;63.26;101580.22;5029943;28;20033;-56
2020/12/03 00:27:56;;;;;;;38.03;14.10;;;;;;;-5.26;63.54;101625.13;5030800;28;20589;-60
2020/12/03 00:30:23;;;;;;;39.30;15.48;;;;;;;-5.84;63.27;101528.59;5030469;28;20068;-60
2020/12/03 00:32:52;;;;;;;35.25;14.63;;;;;;;-5.21;63.02;101623.44;5030525;28;20033;-54
2020/12/03 00:35:20;;;;;;;38.03;14.95;;;;;;;-5.26;63.17;101627.72;5030757;28;20120;-60
2020/12/03 00:37:45;;;;;;;29.48;11.05;;;;;;;-5.26;63.39;101611.19;5030405;28;20052;-58
2020/12/03 00:40:11;;;;;;;37.97;15.05;;;;;;;-5.79;62.90;101517.38;5030725;28;20025;-58
2020/12/03 00:42:36;;;;;;;35.67;14.27;;;;;;;-5.35;63.10;101620.63;5035588;28;20045;-57
2020/12/03 00:45:06;;;;;;;38.85;14.50;;;;;;;-5.33;62.75;101600.66;5028733;28;20058;-59
2020/12/03 00:47:32;;;;;;;35.28;14.32;;;;;;;-5.24;63.08;101612.09;5030851;28;20041;-60
2020/12/03 00:49:58;;;;;;;33.80;13.68;;;;;;;-5.33;62.93;101590.19;5030014;28;20116;-59
2020/12/03 00:52:24;;;;;;;36.85;14.85;;;;;;;-5.15;62.72;101617.44;5038617;28;20124;-56
2020/12/03 00:54:49;;;;;;;36.70;15.13;;;;;;;-5.23;62.75;101609.47;5031858;28;20194;-61
2020/12/03 00:57:15;;;;;;;42.15;13.90;;;;;;;-5.23;62.82;101621.69;5037613;28;20049;-59
2020/12/03 00:59:40;;;;;;;33.10;13.07;;;;;;;-5.29;63.17;101626.81;5029783;28;20389;-61
2020/12/03 01:02:09;;;;;;;34.97;14.40;;;;;;;-5.30;63.54;101628.53;5030457;28;20056;-57
2020/12/03 01:04:35;;;;;;;33.53;14.88;;;;;;;-5.43;63.29;101619.66;5029519;28;20121;-61
2020/12/03 01:07:01;;;;;;;33.30;13.50;;;;;;;-5.91;63.09;101525.00;5030442;28;20172;-61
2020/12/03 01:09:27;;;;;;;31.08;12.43;;;;;;;-5.12;62.60;101625.28;5030111;28;20045;-60
2020/12/03 01:11:52;;;;;;;37.08;14.77;;;;;;;-5.13;62.47;101636.59;5030025;28;20533;-58
2020/12/03 01:14:18;;;;;;;35.63;14.32;;;;;;;-5.25;62.82;101636.44;5029175;28;20034;-59
2020/12/03 01:16:45;;;;;;;37.47;15.65;;;;;;;-5.25;62.62;101644.28;5030364;28;20035;-61
2020/12/03 01:19:11;;;;;;;31.67;12.38;;;;;;;-5.07;61.91;101623.63;5030028;28;20481;-60
2020/12/03 01:21:36;;;;;;;36.13;14.02;;;;;;;-5.18;62.11;101620.00;5029937;28;20128;-53
2020/12/03 01:24:03;;;;;;;33.90;13.13;;;;;;;-5.25;62.53;101628.63;5030438;28;20037;-61
2020/12/03 01:26:28;;;;;;;32.67;13.57;;;;;;;-5.26;62.66;101632.94;5030558;28;20044;-61
2020/12/03 01:28:54;;;;;;;34.67;13.50;;;;;;;-5.42;62.45;101603.13;5034374;28;20400;-59
2020/12/03 01:31:19;;;;;;;36.38;14.40;;;;;;;-5.32;62.89;101622.44;5034161;28;20033;-56
2020/12/03 01:33:45;;;;;;;35.75;13.52;;;;;;;-5.24;62.41;101622.53;5033655;28;20037;-60
2020/12/03 01:36:13;;;;;;;35.47;14.55;;;;;;;-5.52;61.67;101556.91;5033844;28;20047;-55
2020/12/03 01:38:38;;;;;;;31.85;13.50;;;;;;;-5.36;62.44;101598.00;5032980;28;20123;-60
2020/12/03 01:41:04;;;;;;;35.50;13.80;;;;;;;-5.49;62.43;101589.13;5034293;28;20073;-56
2020/12/03 01:43:29;;;;;;;34.97;15.15;;;;;;;-5.21;61.91;101622.56;5033517;28;20412;-59
2020/12/03 01:46:02;;;;;;;32.20;13.52;;;;;;;-5.34;62.70;101618.91;5033699;28;20064;-59
2020/12/03 01:48:37;;;;;;;34.40;14.45;;;;;;;-5.33;62.28;101618.91;5033426;28;20037;-58
2020/12/03 01:51:25;;;;;;;32.30;13.53;;;;;;;-5.96;62.98;101519.75;5034133;28;20435;-58
2020/12/03 01:53:54;;;;;;;37.97;14.13;;;;;;;-5.44;62.59;101627.44;5033591;28;20052;-59
2020/12/03 01:56:41;;;;;;;32.95;13.70;;;;;;;-5.40;63.05;101606.66;5033604;28;20519;-59
2020/12/03 01:59:07;;;;;;;30.83;12.70;;;;;;;-5.50;62.17;101581.28;5015558;28;20084;-57
2020/12/03 02:01:34;;;;;;;34.53;14.00;;;;;;;-5.38;62.41;101617.97;5033767;28;20401;-63
2020/12/03 02:03:59;;;;;;;34.53;13.60;;;;;;;-5.37;62.56;101611.91;5033695;28;20064;-63
2020/12/03 02:06:28;;;;;;;34.20;13.65;;;;;;;-5.39;62.50;101611.00;5032275;28;20505;-63
2020/12/03 02:08:54;;;;;;;38.58;14.15;;;;;;;-5.46;62.81;101617.00;5033700;28;20084;-62
2020/12/03 02:11:21;;;;;;;39.13;14.35;;;;;;;-5.45;62.76;101595.28;5032513;28;20080;-56
2020/12/03 02:13:50;;;;;;;34.97;13.73;;;;;;;-5.48;62.80;101593.47;5033285;28;20041;-60
2020/12/03 02:16:16;;;;;;;32.03;14.00;;;;;;;-5.40;62.95;101603.19;5033500;28;20469;-59
2020/12/03 02:18:46;;;;;;;37.97;14.05;;;;;;;-5.34;62.46;101614.56;5033251;28;20073;-60
2020/12/03 02:21:11;;;;;;;33.53;14.18;;;;;;;-5.40;62.50;101593.59;5031962;28;20033;-57
2020/12/03 02:23:37;;;;;;;34.38;14.90;;;;;;;-5.50;62.63;101579.53;5014923;28;20090;-54
2020/12/03 02:26:02;;;;;;;29.13;11.35;;;;;;;-5.29;62.11;101611.16;5015827;28;20037;-59
2020/12/03 02:28:27;;;;;;;32.10;13.85;;;;;;;-6.00;61.85;101484.03;5033065;28;20396;-60
2020/12/03 02:30:53;;;;;;;30.60;10.73;;;;;;;-5.18;61.99;101601.72;5033108;28;20068;-62
2020/12/03 02:33:18;;;;;;;38.40;13.40;;;;;;;-5.16;61.23;101613.06;5032463;28;20409;-61
2020/12/03 02:35:44;;;;;;;36.47;14.13;;;;;;;-5.29;61.51;101598.09;5045783;28;20068;-60
2020/12/03 02:38:09;;;;;;;28.92;11.98;;;;;;;-5.47;61.81;101568.28;5031561;28;20048;-58
2020/12/03 02:40:35;;;;;;;33.40;13.38;;;;;;;-5.45;61.46;101563.94;5033370;28;20037;-61
2020/12/03 02:43:00;;;;;;;30.90;12.93;;;;;;;-5.28;61.75;101600.72;5033051;28;20037;-61
2020/12/03 02:45:26;;;;;;;31.48;13.30;;;;;;;-5.33;61.60;101590.19;5032669;28;20044;-63
2020/12/03 02:47:51;;;;;;;30.50;13.55;;;;;;;-5.39;61.91;101597.09;5032716;28;20156;-63
2020/12/03 02:50:16;;;;;;;29.42;11.80;;;;;;;-5.23;61.38;101595.56;5031530;28;20043;-60
2020/12/03 02:52:42;;;;;;;33.45;12.98;;;;;;;-5.38;62.09;101589.28;5032231;28;20059;-62
2020/12/03 02:55:08;;;;;;;35.13;13.52;;;;;;;-5.33;61.47;101603.25;5032424;28;20103;-60
2020/12/03 02:57:34;;;;;;;30.60;13.05;;;;;;;-5.29;61.44;101598.97;5032375;28;20536;-56
2020/12/03 02:59:59;;;;;;;34.53;13.38;;;;;;;-5.26;61.35;101599.00;5032570;28;20121;-60
2020/12/03 03:02:24;;;;;;;35.38;14.82;;;;;;;-5.28;61.18;101598.09;5031558;28;20037;-59
2020/12/03 03:04:50;;;;;;;35.65;13.18;;;;;;;-5.43;61.17;101592.66;5032539;28;20037;-58
2020/12/03 03:07:15;;;;;;;38.65;14.45;;;;;;;-5.28;61.16;101607.69;5032260;28;20037;-62
2020/12/03 03:09:41;;;;;;;35.28;14.45;;;;;;;-5.26;61.25;101605.97;5031352;28;20095;-61
2020/12/03 03:12:06;;;;;;;32.72;13.40;;;;;;;-5.20;60.80;101604.28;5032416;28;20076;-62
2020/12/03 03:14:32;;;;;;;33.35;14.05;;;;;;;-5.26;61.18;101585.09;5031685;28;20048;-60
2020/12/03 03:16:58;;;;;;;29.75;13.07;;;;;;;-5.22;60.92;101592.09;5014223;28;20041;-61
2020/12/03 03:19:23;;;;;;;27.60;11.70;;;;;;;-5.15;60.69;101603.50;5032126;28;20116;-58
2020/12/03 03:21:49;;;;;;;32.13;12.82;;;;;;;-5.22;60.80;101587.72;5031987;28;20030;-61
2020/12/03 03:24:14;;;;;;;35.88;14.32;;;;;;;-5.28;61.10;101592.03;5029697;28;20056;-60
2020/12/03 03:26:41;;;;;;;32.85;14.38;;;;;;;-5.33;61.28;101598.03;5031431;28;20076;-63
2020/12/03 03:29:07;;;;;;;32.55;13.60;;;;;;;-5.36;61.61;101598.00;5032102;28;20484;-60
2020/12/03 03:31:33;;;;;;;31.83;13.50;;;;;;;-5.40;61.05;101606.66;5032409;28;20103;-62
2020/12/03 03:33:58;;;;;;;30.08;11.15;;;;;;;-5.49;61.38;101564.75;5030536;28;20025;-61
2020/12/03 03:36:24;;;;;;;35.40;13.30;;;;;;;-5.69;61.45;101538.38;5031255;28;20048;-62
2020/12/03 03:38:50;;;;;;;31.85;13.05;;;;;;;-5.41;61.51;101590.97;5013442;28;20116;-62
2020/12/03 03:41:15;;;;;;;34.22;14.73;;;;;;;-5.51;61.40;101571.69;5031887;28;20046;-63
2020/12/03 03:43:41;;;;;;;27.83;12.18;;;;;;;-5.34;61.56;101583.22;5030346;28;20033;-62
2020/12/03 03:46:06;;;;;;;35.58;14.27;;;;;;;-5.48;61.21;101562.16;5031831;28;20037;-61
2020/12/03 03:48:32;;;;;;;35.85;14.25;;;;;;;-5.36;61.21;101591.91;5029687;28;20449;-62
2020/12/03 03:50:58;;;;;;;34.58;15.05;;;;;;;-5.26;61.13;101580.72;5031387;28;20141;-62
2020/12/03 03:53:24;;;;;;;31.77;13.25;;;;;;;-5.37;60.95;101583.19;5031880;28;20124;-60
2020/12/03 03:55:50;;;;;;;36.38;14.02;;;;;;;-5.36;61.24;101574.50;5031718;28;20140;-60
2020/12/03 03:58:15;;;;;;;27.65;10.10;;;;;;;-5.20;60.83;101588.63;5032015;28;20064;-61
2020/12/03 04:00:44;;;;;;;32.67;13.48;;;;;;;-5.60;61.26;101545.44;5031021;28;20099;-60
2020/12/03 04:03:13;;;;;;;30.95;12.73;;;;;;;-5.26;60.73;101579.88;5029705;28;20439;-59
2020/12/03 04:05:40;;;;;;;34.63;13.25;;;;;;;-5.29;60.94;101593.75;5031024;28;20025;-57
2020/12/03 04:08:06;;;;;;;30.23;11.90;;;;;;;-5.13;60.66;101578.28;4997044;28;20087;-62
2020/12/03 04:10:32;;;;;;;36.92;13.70;;;;;;;-5.07;60.62;101581.81;5031216;28;20041;-62
2020/12/03 04:12:58;;;;;;;33.60;14.05;;;;;;;-5.20;60.72;101559.03;5030908;28;20045;-62
2020/12/03 04:15:23;;;;;;;31.88;13.52;;;;;;;-4.94;60.35;101575.03;5031354;28;20057;-61
2020/12/03 04:17:49;;;;;;;23.15;10.13;;;;;;;-4.72;59.79;101582.25;5029917;28;20044;-59
2020/12/03 04:20:15;;;;;;;30.40;12.43;;;;;;;-4.83;59.79;101582.97;5031335;28;20553;-57
2020/12/03 04:22:42;;;;;;;34.33;14.60;;;;;;;-4.77;59.61;101584.78;5031275;28;20535;-58
2020/12/03 04:25:07;;;;;;;34.85;13.15;;;;;;;-4.79;59.89;101571.72;5030858;28;20164;-56
2020/12/03 04:27:33;;;;;;;28.70;10.88;;;;;;;-4.70;59.83;101584.03;5013460;28;20120;-60
2020/12/03 04:29:58;;;;;;;31.15;12.68;;;;;;;-4.94;59.62;101545.41;5031051;28;20037;-56
2020/12/03 04:32:24;;;;;;;37.67;14.15;;;;;;;-4.70;59.60;101575.28;5030668;28;20067;-60
2020/12/03 04:34:49;;;;;;;31.35;12.82;;;;;;;-4.70;59.62;101584.03;5030769;28;20527;-63
2020/12/03 04:37:14;;;;;;;34.53;12.35;;;;;;;-4.69;59.88;101563.97;5030323;28;20037;-63
2020/12/03 04:39:41;;;;;;;33.50;14.32;;;;;;;-4.63;59.56;101567.53;5030665;28;20468;-61
2020/12/03 04:42:27;;;;;;;32.47;13.65;;;;;;;-4.57;59.26;101586.75;5030695;28;20034;-62
2020/12/03 04:44:57;;;;;;;31.45;13.40;;;;;;;-5.03;58.85;101504.38;5030925;28;20404;-62
2020/12/03 04:47:42;;;;;;;35.13;13.57;;;;;;;-4.55;59.27;101570.22;5030875;28;20037;-64
2020/12/03 04:50:17;;;;;;;32.55;13.40;;;;;;;-4.43;59.14;101571.19;5029887;28;20033;-54
2020/12/03 04:53:14;;;;;;;34.42;13.15;;;;;;;-4.53;59.13;101572.84;5030377;28;20073;-62
2020/12/03 04:55:53;;;;;;;32.28;13.68;;;;;;;-4.38;59.01;101588.69;5030072;28;20053;-61
2020/12/03 04:58:35;;;;;;;30.08;13.02;;;;;;;-4.38;58.90;101567.78;5029939;28;20531;-61
2020/12/03 05:01:21;;;;;;;29.85;12.57;;;;;;;-4.27;59.14;101575.72;5029455;28;20444;-63
2020/12/03 05:04:14;;;;;;;32.83;14.45;;;;;;;-4.45;58.25;101521.53;5029808;28;20041;-60
2020/12/03 05:07:04;;;;;;;35.60;13.48;;;;;;;-4.17;57.91;101571.44;4995230;28;20602;-63
2020/12/03 05:09:40;;;;;;;34.47;13.90;;;;;;;-4.39;58.20;101560.78;5030374;28;20095;-61
2020/12/03 05:12:25;;;;;;;;;;;;;;;-4.15;58.14;101563.59;5031097;28;20037;-63
2020/12/03 05:14:54;;;;;;;30.97;11.20;;;;;;;-4.09;58.19;101561.06;5029310;28;20383;-59
2020/12/03 05:17:43;;;;;;;34.00;13.98;;;;;;;-4.15;57.70;101555.75;5029274;28;20037;-61
2020/12/03 05:20:38;;;;;;;36.72;14.30;;;;;;;-4.24;58.28;101556.53;5012512;28;20037;-59
2020/12/03 05:23:20;;;;;;;40.03;14.70;;;;;;;-4.36;58.36;101545.13;5021336;28;20103;-62
2020/12/03 05:25:48;;;;;;;33.67;13.85;;;;;;;-4.27;58.45;101557.41;5030149;28;20095;-63
2020/12/03 05:28:29;;;;;;;32.88;13.50;;;;;;;-4.76;58.11;101462.00;5029860;28;20037;-62
2020/12/03 05:31:05;;;;;;;37.50;14.13;;;;;;;-4.19;57.89;101547.88;5029976;28;20041;-62
2020/12/03 05:33:30;;;;;;;34.22;13.25;;;;;;;-4.30;57.94;101546.03;5029679;28;20064;-63
2020/12/03 05:35:56;;;;;;;38.42;13.63;;;;;;;-4.80;58.26;101455.00;5029792;28;20053;-61
2020/12/03 05:38:24;;;;;;;36.38;14.75;;;;;;;-4.30;58.61;101544.31;5028721;28;20033;-62
2020/12/03 05:41:01;;;;;;;39.63;15.32;;;;;;;-4.37;58.45;101539.88;5029769;28;20138;-63
2020/12/03 05:43:28;;;;;;;40.83;14.20;;;;;;;-4.45;58.63;101531.09;5028608;28;20060;-61
2020/12/03 05:45:56;;;;;;;28.20;11.35;;;;;;;-4.33;58.44;101549.53;5011831;28;20057;-63
2020/12/03 05:48:22;;;;;;;28.25;11.80;;;;;;;-4.35;58.40;101552.09;5034814;28;20488;-61
2020/12/03 05:50:48;;;;;;;32.60;13.80;;;;;;;-4.41;58.26;101561.63;5050167;28;20083;-61
2020/12/03 05:53:15;;;;;;;35.30;14.30;;;;;;;-4.44;58.63;101567.72;5032455;28;20099;-62
2020/12/03 05:55:41;;;;;;;31.98;12.32;;;;;;;-4.40;58.36;101552.91;5029804;28;20053;-64
2020/12/03 05:58:32;;;;;;;27.30;11.52;;;;;;;-4.67;57.35;101479.50;5028718;28;20033;-65
2020/12/03 06:01:27;;;;;;;27.98;12.88;;;;;;;-4.28;57.22;101563.50;5027530;28;20054;-64
2020/12/03 06:04:11;;;;;;;35.88;14.20;;;;;;;-4.29;57.59;101572.22;5020299;28;20136;-63
2020/12/03 06:07:02;;;;;;;38.50;13.75;;;;;;;-4.27;58.00;101560.03;5012397;28;20477;-63
2020/12/03 06:09:58;;;;;;;33.85;12.95;;;;;;;-4.19;57.14;101568.81;5029602;28;20132;-64
2020/12/03 06:12:39;;;;;;;;;;;;;;;-4.09;56.97;101567.16;5030853;28;20041;-64
2020/12/03 06:15:19;;;;;;;33.92;13.13;;;;;;;-4.20;56.43;101568.81;5032498;28;19917;-62
2020/12/03 06:17:59;;;;;;;31.00;13.23;;;;;;;-4.22;57.20;101581.84;5033074;28;20068;-63
2020/12/03 06:20:40;;;;;;;33.85;14.65;;;;;;;-4.23;57.31;101576.59;5033244;28;20480;-62
2020/12/03 06:23:23;;;;;;;33.38;13.60;;;;;;;-4.12;57.12;101576.69;5032766;28;20411;-57
2020/12/03 06:26:07;;;;;;;29.08;11.40;;;;;;;-3.85;56.40;101567.34;5033070;28;20053;-54
2020/12/03 06:28:49;;;;;;;37.03;13.18;;;;;;;-3.76;56.38;101573.47;5033053;28;20045;-57
2020/12/03 06:31:33;;;;;;;27.02;9.32;;;;;;;-3.66;55.45;101569.19;5029745;28;20421;-63
2020/12/03 06:34:12;;;;;;;30.30;13.05;;;;;;;-3.68;55.36;101576.16;5027483;28;20861;-58
2020/12/03 06:36:41;;;;;;;29.83;12.65;;;;;;;-3.43;55.14;101581.53;5029680;28;20543;-60
2020/12/03 06:39:20;;;;;;;30.98;11.98;;;;;;;-3.61;54.75;101527.34;5047953;28;20096;-60
2020/12/03 06:41:57;;;;;;;30.77;13.82;;;;;;;-3.23;54.40;101570.31;5019030;28;20034;-59
2020/12/03 06:44:22;;;;;;;32.42;13.60;;;;;;;-2.88;54.06;101580.06;5048868;28;20040;-55
2020/12/03 06:46:54;;;;;;;29.02;12.48;;;;;;;-2.40;53.72;101581.94;5052383;28;20041;-55
2020/12/03 06:49:47;;;;;;;29.98;12.98;;;;;;;-1.86;51.72;101581.94;5045281;28;20072;-57
2020/12/03 06:52:40;;;;;;;30.63;12.68;;;;;;;-1.03;50.29;101577.38;5032487;28;20045;-60
2020/12/03 06:55:11;;;;;;;35.58;12.65;;;;;;;-0.69;49.87;101571.09;5032921;28;20057;-61
2020/12/03 06:58:02;;;;;;;30.83;13.00;;;;;;;-0.84;49.34;101558.84;5032891;28;20413;-58
2020/12/03 07:00:39;;;;;;;33.95;12.98;;;;;;;-1.25;49.57;101566.94;5032449;28;20041;-57
2020/12/03 07:03:22;;;;;;;34.05;12.20;;;;;;;-1.73;49.49;101567.03;5032298;28;20037;-62
2020/12/03 07:06:26;;;;;;;32.35;13.40;;;;;;;-2.39;51.73;101588.94;5032683;28;20055;-60
2020/12/03 07:09:17;;;;;;;29.33;11.95;;;;;;;-3.14;52.15;101509.22;5010429;28;20046;-61
2020/12/03 07:12:17;;;;;;;29.50;12.45;;;;;;;-3.01;52.24;101576.53;5032172;28;20045;-55
2020/12/03 07:15:29;;;;;;;29.35;12.95;;;;;;;-3.21;53.60;101584.28;5005898;28;20061;-55
2020/12/03 07:18:12;;;;;;;30.50;12.15;;;;;;;-3.31;53.69;101575.50;5032494;28;20056;-59
2020/12/03 07:20:50;;;;;;;35.47;13.18;;;;;;;-3.34;53.56;101572.88;5032723;28;20046;-54
2020/12/03 07:23:32;;;;;;;29.33;12.00;;;;;;;-3.32;53.50;101576.38;5031639;28;20381;-56
2020/12/03 07:26:15;;;;;;;33.22;13.05;;;;;;;-3.27;53.23;101576.41;5014544;28;20038;-58
2020/12/03 07:28:44;;;;;;;30.95;13.63;;;;;;;-3.40;53.29;101551.88;5029875;28;20098;-59
2020/12/03 07:31:34;;;;;;;29.85;12.68;;;;;;;-3.22;52.94;101577.28;5030461;28;20399;-57
2020/12/03 07:34:24;;;;;;;32.63;13.30;;;;;;;-3.24;52.96;101600.00;5030661;28;20029;-62
2020/12/03 07:37:41;;;;;;;31.52;13.48;;;;;;;-3.32;52.78;101574.63;5029486;28;20033;-58
2020/12/03 07:40:07;;;;;;;23.98;9.38;;;;;;;-3.76;52.75;101492.34;5012212;28;20060;-58
2020/12/03 07:42:33;;;;;;;33.10;14.05;;;;;;;-3.36;53.23;101570.25;5011713;28;20140;-54
2020/12/03 07:44:59;;;;;;;32.92;12.68;;;;;;;-3.33;52.91;101583.38;5029312;28;20037;-58
2020/12/03 07:47:32;;;;;;;36.50;14.88;;;;;;;-3.27;53.49;101571.16;5030108;28;20030;-56
2020/12/03 07:50:05;;;;;;;31.95;13.65;;;;;;;-3.23;52.90;101584.28;5026210;28;20029;-64
2020/12/03 07:52:33;;;;;;;33.40;13.45;;;;;;;-3.25;52.92;101583.41;5028968;28;20556;-66
2020/12/03 07:55:21;;;;;;;39.13;15.05;;;;;;;-3.35;53.36;101590.34;5029987;28;20429;-66
2020/12/03 07:57:55;;;;;;;32.58;13.98;;;;;;;-3.48;53.57;101578.91;5030675;28;20049;-64
2020/12/03 08:00:24;;;;;;;31.70;14.18;;;;;;;-3.38;53.15;101597.28;5031178;28;20107;-72
2020/12/03 08:02:51;;;;;;;35.00;14.20;;;;;;;-3.42;53.16;101585.91;5023637;28;20595;-73
2020/12/03 08:05:53;;;;;;;33.67;12.73;;;;;;;-3.38;53.69;101578.97;5029103;28;20057;-73
2020/12/03 08:08:21;;;;;;;31.15;13.07;;;;;;;-3.36;53.32;101591.22;5030917;28;20025;-64
2020/12/03 08:10:47;;;;;;;31.10;14.32;;;;;;;-3.62;53.39;101549.16;5030041;28;20045;-67
2020/12/03 08:13:15;;;;;;;35.83;15.00;;;;;;;-3.42;54.04;101577.19;5030573;28;20378;-66
2020/12/03 08:15:41;;;;;;;36.25;14.45;;;;;;;-3.32;54.06;101585.13;5029624;28;20033;-67
2020/12/03 08:18:43;;;;;;;34.55;14.55;;;;;;;-3.17;53.64;101572.94;5030847;28;20046;-67
2020/12/03 08:21:12;;;;;;;39.50;14.80;;;;;;;-3.08;53.32;101575.63;4996482;28;20037;-55
2020/12/03 08:23:38;;;;;;;39.40;15.65;;;;;;;-3.05;53.32;101561.63;5030941;28;20566;-64
2020/12/03 08:26:04;;;;;;;40.72;15.13;;;;;;;-2.98;53.86;101584.41;5030372;28;20041;-67
2020/12/03 08:28:32;;;;;;;37.42;13.98;;;;;;;-2.95;53.84;101581.78;5029315;28;20467;-67
2020/12/03 08:30:57;;;;;;;37.67;14.40;;;;;;;-2.86;53.85;101570.47;5030322;28;20041;-66
2020/12/03 08:33:33;;;;;;;37.80;16.50;;;;;;;-2.92;53.31;101550.34;5044657;28;20040;-76
2020/12/03 08:36:04;;;;;;;37.00;14.23;;;;;;;-2.77;52.79;101575.72;5029083;28;20034;-69
2020/12/03 08:38:33;;;;;;;34.70;14.82;;;;;;;-3.44;53.32;101485.50;5030037;28;20064;-66
2020/12/03 08:41:02;;;;;;;35.42;15.18;;;;;;;-3.15;53.71;101538.91;5029410;28;20443;-65
2020/12/03 08:43:30;;;;;;;31.70;14.52;;;;;;;-3.46;53.76;101482.91;5029980;28;20069;-69
2020/12/03 08:48:43;;;;;;;33.63;14.65;;;;;;;-2.81;53.30;101560.88;5029558;28;20536;-68
2020/12/03 08:51:11;;;;;;;33.97;14.60;;;;;;;-3.47;53.90;101438.38;5030945;28;20056;-75
2020/12/03 08:53:38;;;;;;;41.85;14.35;;;;;;;-2.67;53.62;101560.00;5024023;28;20123;-71
2020/12/03 08:56:16;;;;;;;41.78;14.38;;;;;;;-2.64;53.08;101552.16;5030373;28;20059;-70
2020/12/03 08:58:49;;;;;;;36.80;14.73;;;;;;;-2.60;53.03;101551.31;5029437;28;20049;-71
2020/12/03 09:01:21;;;;;;;36.28;14.60;;;;;;;-3.13;53.08;101459.44;5025628;28;20405;-64
2020/12/03 09:03:47;;;;;;;46.08;16.40;;;;;;;-2.66;53.07;101556.50;5029329;28;20033;-65
2020/12/03 09:06:13;;;;;;;34.33;15.38;;;;;;;-2.70;53.66;101570.47;5028946;28;20041;-65
2020/12/03 09:08:39;;;;;;;23.05;9.20;;;;;;;-2.75;54.00;101558.25;5029931;28;20112;-68
2020/12/03 09:11:05;;;;;;;34.53;15.38;;;;;;;-2.72;53.23;101553.88;5029414;28;20033;-64
2020/12/03 09:13:31;;;;;;;35.05;15.13;;;;;;;-2.78;53.77;101563.50;5029462;28;20406;-70
2020/12/03 09:15:58;;;;;;;35.60;15.20;;;;;;;-2.74;53.77;101544.25;5029357;28;20124;-69
2020/12/03 09:18:24;;;;;;;32.85;15.32;;;;;;;-2.58;53.71;101540.78;5029169;28;20120;-70
2020/12/03 09:20:49;;;;;;;32.20;14.50;;;;;;;-2.46;53.65;101560.03;5028453;28;20121;-63
2020/12/03 09:23:22;;;;;;;36.22;14.80;;;;;;;-2.58;53.47;101541.69;5029605;28;20088;-70
2020/12/03 09:25:49;;;;;;;36.38;15.38;;;;;;;-2.58;53.73;101541.69;5029335;28;20036;-70
2020/12/03 09:28:15;;;;;;;34.10;11.27;;;;;;;-2.45;53.43;101546.06;5028977;28;20123;-58
2020/12/03 09:30:44;;;;;;;36.67;14.98;;;;;;;-2.52;52.94;101540.81;5029063;28;20103;-64
2020/12/03 09:33:14;;;;;;;40.13;15.35;;;;;;;-2.52;53.55;101548.69;5028134;28;20075;-70
2020/12/03 09:35:42;;;;;;;40.10;15.40;;;;;;;-2.52;53.14;101546.94;5029069;28;20030;-67
2020/12/03 09:38:09;;;;;;;34.65;15.20;;;;;;;-2.66;53.63;101548.63;5026793;28;20124;-63
2020/12/03 09:40:36;;;;;;;38.42;15.00;;;;;;;-2.63;53.64;101548.69;5026840;28;20509;-64
2020/12/03 09:43:03;;;;;;;37.63;14.55;;;;;;;-2.67;54.01;101544.28;5023332;28;20049;-63
2020/12/03 09:45:34;;;;;;;39.70;15.05;;;;;;;-2.74;53.72;101533.78;5021102;28;20029;-65
2020/12/03 09:48:09;;;;;;;36.25;15.10;;;;;;;-2.56;54.16;101550.44;5029387;28;20052;-65
2020/12/03 09:50:35;;;;;;;38.78;14.35;;;;;;;-2.40;53.64;101529.47;5023150;28;20080;-62
2020/12/03 09:53:01;;;;;;;33.03;13.52;;;;;;;-2.41;53.72;101511.94;5024879;28;20460;-60
2020/12/03 09:55:26;;;;;;;34.55;14.02;;;;;;;-2.12;53.76;101524.22;5045998;28;20550;-62
2020/12/03 09:57:56;;;;;;;39.28;15.57;;;;;;;-2.42;53.23;101447.25;5020886;28;20052;-61
2020/12/03 10:00:31;;;;;;;39.70;15.40;;;;;;;-2.72;52.95;101438.53;5024404;28;20156;-65
2020/12/03 10:02:57;;;;;;;39.03;14.77;;;;;;;-2.22;53.32;101521.56;5023561;28;20029;-67
2020/12/03 10:05:50;;;;;;;37.60;14.05;;;;;;;-2.23;53.54;101535.56;5023680;28;20048;-65
2020/12/03 10:08:41;;;;;;;35.22;16.05;;;;;;;-2.32;53.84;101533.81;5020065;28;20427;-69
2020/12/03 10:11:38;;;;;;;32.40;12.65;;;;;;;-2.30;53.31;101525.97;5022209;28;20041;-65
2020/12/03 10:14:35;;;;;;;38.22;14.32;;;;;;;-2.34;53.97;101524.22;5021692;28;20037;-69
2020/12/03 10:17:05;;;;;;;32.25;12.45;;;;;;;-2.28;53.52;101516.34;5023620;28;20029;-64
2020/12/03 10:19:44;;;;;;;30.75;14.02;;;;;;;-2.19;53.46;101521.56;5022238;28;20099;-69
2020/12/03 10:22:25;;;;;;;33.42;15.00;;;;;;;-2.32;53.92;101506.72;5020633;28;20037;-63
2020/12/03 10:25:02;;;;;;;32.60;13.95;;;;;;;-2.48;53.88;101488.34;5021304;28;20095;-72
2020/12/03 10:27:39;;;;;;;34.05;14.25;;;;;;;-2.37;53.99;101506.72;5021450;28;20539;-66
2020/12/03 10:30:07;;;;;;;;;;;;;;;-2.12;53.52;101501.47;5021358;28;20048;-61
2020/12/03 10:32:39;;;;;;;32.25;13.80;;;;;;;-2.21;53.40;101515.47;5019214;28;20100;-60
2020/12/03 10:35:04;;;;;;;34.50;14.43;;;;;;;-2.35;53.96;101517.22;5026259;28;20040;-61
2020/12/03 10:37:46;;;;;;;35.33;14.40;;;;;;;-2.33;54.79;101504.97;5023564;28;20033;-60
2020/12/03 10:40:18;;;;;;;29.30;14.35;;;;;;;-2.63;54.64;101438.53;5007055;28;20052;-62
2020/12/03 10:43:06;;;;;;;32.95;13.15;;;;;;;-2.07;53.88;101491.81;5028542;28;20079;-56
2020/12/03 10:45:38;;;;;;;32.72;14.73;;;;;;;-2.21;53.80;101476.09;5028525;28;20044;-63
2020/12/03 10:48:14;;;;;;;29.20;12.90;;;;;;;-2.01;54.03;101506.69;5029193;28;20198;-59
2020/12/03 10:50:58;;;;;;;36.63;14.07;;;;;;;-1.95;54.27;101509.31;5029119;28;20447;-60
2020/12/03 10:53:29;;;;;;;32.72;13.10;;;;;;;-1.88;54.16;101511.06;5029541;28;20051;-62
2020/12/03 10:56:08;;;;;;;30.45;14.48;;;;;;;-1.84;54.29;101513.69;5018017;28;20062;-61
2020/12/03 11:01:27;;;;;;;35.13;15.40;;;;;;;-1.86;54.05;101478.69;4996288;28;20045;-60
2020/12/03 11:03:54;;;;;;;36.35;15.95;;;;;;;-1.92;53.74;101461.19;5011926;28;20493;-59
2020/12/03 11:06:24;;;;;;;37.42;16.20;;;;;;;-1.83;54.60;101497.06;5012162;28;20076;-57
2020/12/03 11:08:51;;;;;;;37.35;15.82;;;;;;;-1.83;54.12;101484.78;5011417;28;20064;-63
2020/12/03 11:11:17;;;;;;;32.33;14.25;;;;;;;-1.78;53.92;101497.91;4994625;28;20049;-61
2020/12/03 11:13:44;;;;;;;40.70;16.55;;;;;;;-1.98;54.43;101464.69;5010836;28;20045;-62
2020/12/03 11:16:11;;;;;;;38.63;15.95;;;;;;;-1.84;54.04;101492.69;4993785;28;20069;-60
2020/12/03 11:18:47;;;;;;;39.13;16.23;;;;;;;-1.96;54.22;101468.19;5012115;28;20129;-59
2020/12/03 11:21:22;;;;;;;23.73;8.07;;;;;;;-1.73;53.54;101480.38;5009532;28;20096;-59
2020/12/03 11:24:07;;;;;;;33.60;12.90;;;;;;;-1.81;54.54;101480.44;5011757;28;20049;-62
2020/12/03 11:26:34;;;;;;;32.17;13.15;;;;;;;-2.00;54.20;101473.47;5011587;28;20042;-61
2020/12/03 11:29:13;;;;;;;38.15;13.13;;;;;;;-1.97;54.71;101486.56;4994056;28;20030;-61
2020/12/03 11:31:39;;;;;;;35.20;13.82;;;;;;;-2.11;54.31;101465.59;5010765;28;20125;-61
2020/12/03 11:34:05;;;;;;;30.05;13.38;;;;;;;-1.90;54.21;101477.81;5011696;28;20037;-59
2020/12/03 11:36:39;;;;;;;36.55;14.25;;;;;;;-1.94;53.80;101479.56;5010063;28;20042;-62